createdAt,value
2019-05-21T00:02:28.254Z,5.10
2019-05-21T00:04:58.174Z,5.33
2019-05-21T00:07:28.039Z,6.17
2019-05-21T00:09:58.201Z,5.00
2019-05-21T00:12:28.702Z,6.47
2019-05-21T00:14:58.616Z,4.77
2019-05-21T00:17:28.413Z,5.77
2019-05-21T00:19:58.343Z,4.80
2019-05-21T00:22:28.584Z,4.70
2019-05-21T00:24:58.590Z,5.40
2019-05-21T00:27:28.478Z,6.57
2019-05-21T00:30:52.964Z,5.13
2019-05-21T00:34:17.522Z,5.30
2019-05-21T00:37:42.000Z,5.40
2019-05-21T00:41:06.563Z,6.07
2019-05-21T00:43:46.253Z,5.07
2019-05-21T00:46:16.221Z,5.77
2019-05-21T00:48:46.137Z,6.30
2019-05-21T00:51:16.341Z,6.50
2019-05-21T00:53:46.271Z,5.57
2019-05-21T00:56:16.168Z,5.60
2019-05-21T00:58:46.081Z,6.30
2019-05-21T01:01:17.077Z,8.17
2019-05-21T01:03:47.287Z,7.47
2019-05-21T01:06:17.893Z,6.63
2019-05-21T01:08:47.898Z,6.83
2019-05-21T01:11:17.811Z,7.17
2019-05-21T01:13:47.724Z,6.70
2019-05-21T01:16:17.933Z,6.70
2019-05-21T01:18:47.847Z,7.70
2019-05-21T01:21:18.055Z,8.07
2019-05-21T01:23:47.967Z,7.13
2019-05-21T01:26:18.177Z,7.73
2019-05-21T01:28:48.090Z,6.83
2019-05-21T01:31:18.155Z,6.97
2019-05-21T01:33:48.125Z,6.53
2019-05-21T01:36:18.127Z,7.07
2019-05-21T01:38:48.038Z,7.00
2019-05-21T01:41:18.248Z,7.33
2019-05-21T01:43:48.260Z,6.87
2019-05-21T01:46:18.179Z,7.40
2019-05-21T01:48:48.380Z,7.03
2019-05-21T01:51:18.298Z,7.40
2019-05-21T01:53:48.306Z,7.00
2019-05-21T01:56:18.220Z,7.27
2019-05-21T01:58:48.133Z,7.00
2019-05-21T02:01:18.049Z,6.40
2019-05-21T02:03:47.960Z,8.07
2019-05-21T02:06:17.875Z,6.70
2019-05-21T02:08:48.480Z,7.43
2019-05-21T02:11:18.389Z,7.33
2019-05-21T02:13:48.594Z,7.80
2019-05-21T02:16:18.706Z,7.40
2019-05-21T02:18:48.622Z,8.17
2019-05-21T02:21:18.827Z,8.53
2019-05-21T02:23:49.135Z,7.83
2019-05-21T02:26:19.147Z,7.67
2019-05-21T02:28:49.257Z,7.63
2019-05-21T02:31:19.172Z,7.87
2019-05-21T02:33:49.084Z,7.93
2019-05-21T02:36:19.198Z,6.83
2019-05-21T02:38:49.112Z,7.33
2019-05-21T02:41:19.021Z,7.90
2019-05-21T02:43:49.133Z,7.40
2019-05-21T02:46:19.339Z,7.70
2019-05-21T02:48:49.562Z,10.03
2019-05-21T02:51:19.462Z,9.30
2019-05-21T02:53:49.376Z,10.40
2019-05-21T02:56:19.292Z,9.83
2019-05-21T02:58:49.299Z,9.20
2019-05-21T03:01:20.789Z,11.73
2019-05-21T03:03:51.589Z,10.87
2019-05-21T03:06:21.498Z,10.73
2019-05-21T03:08:51.413Z,11.17
2019-05-21T03:11:21.324Z,11.43
2019-05-21T03:13:51.529Z,10.90
2019-05-21T03:16:21.452Z,11.93
2019-05-21T03:18:51.365Z,11.10
2019-05-21T03:21:21.373Z,12.33
2019-05-21T03:23:51.291Z,10.50
2019-05-21T03:26:21.198Z,10.80
2019-05-21T03:28:51.313Z,10.57
2019-05-21T03:31:21.375Z,10.67
2019-05-21T03:33:51.533Z,9.97
2019-05-21T03:36:32.815Z,10.33
2019-05-21T03:38:53.127Z,11.67
2019-05-21T03:41:23.235Z,10.87
2019-05-21T03:43:53.149Z,9.50
2019-05-21T03:46:23.160Z,13.17
2019-05-21T03:48:53.074Z,10.53
2019-05-21T03:51:23.382Z,10.50
2019-05-21T03:53:53.295Z,12.03
2019-05-21T03:56:23.209Z,10.30
2019-05-21T03:58:53.121Z,9.70
2019-05-21T04:01:23.232Z,10.00
2019-05-21T04:03:53.153Z,10.63
2019-05-21T04:06:23.078Z,10.70
2019-05-21T04:08:53.074Z,12.03
2019-05-21T04:11:23.082Z,12.67
2019-05-21T04:13:53.193Z,14.40
2019-05-21T04:16:24.569Z,14.03
2019-05-21T04:18:56.069Z,15.70
2019-05-21T04:21:25.986Z,15.67
2019-05-21T04:23:55.900Z,12.60
2019-05-21T04:26:25.906Z,12.70
2019-05-21T04:28:55.818Z,11.83
2019-05-21T04:31:25.732Z,12.90
2019-05-21T04:33:55.747Z,13.67
2019-05-21T04:36:25.657Z,12.43
2019-05-21T04:38:55.576Z,11.83
2019-05-21T04:41:25.530Z,14.07
2019-05-21T04:43:55.601Z,14.70
2019-05-21T04:46:25.609Z,14.37
2019-05-21T04:48:55.817Z,14.97
2019-05-21T04:51:25.728Z,20.53
2019-05-21T04:53:55.646Z,18.17
2019-05-21T04:56:25.561Z,14.37
2019-05-21T04:58:55.468Z,17.43
2019-05-21T05:01:25.382Z,16.80
2019-05-21T05:03:55.590Z,17.60
2019-05-21T05:06:25.605Z,17.10
2019-05-21T05:08:55.515Z,18.73
2019-05-21T05:11:25.528Z,19.27
2019-05-21T05:13:55.442Z,19.73
2019-05-21T05:16:25.357Z,23.10
2019-05-21T05:18:55.364Z,23.80
2019-05-21T05:21:25.574Z,24.17
2019-05-21T05:23:55.684Z,22.40
2019-05-21T05:26:25.598Z,26.37
2019-05-21T05:28:55.520Z,25.07
2019-05-21T05:31:25.721Z,28.83
2019-05-21T05:33:55.927Z,25.90
2019-05-21T05:36:25.846Z,26.07
2019-05-21T05:38:56.344Z,29.80
2019-05-21T05:41:26.459Z,25.50
2019-05-21T05:43:56.372Z,28.77
2019-05-21T05:46:26.483Z,30.10
2019-05-21T05:49:01.595Z,25.33
2019-05-21T05:51:30.472Z,26.93
2019-05-21T05:54:00.359Z,26.43
2019-05-21T05:56:31.401Z,25.77
2019-05-21T05:59:01.355Z,24.87
2019-05-21T06:01:32.735Z,23.17
2019-05-21T06:04:02.660Z,27.73
2019-05-21T06:06:32.569Z,25.90
2019-05-21T06:09:02.680Z,24.37
2019-05-21T06:11:32.815Z,24.30
2019-05-21T06:14:02.815Z,23.50
2019-05-21T06:16:32.717Z,23.80
2019-05-21T06:19:02.629Z,23.73
2019-05-21T06:21:32.840Z,26.37
2019-05-21T06:24:03.143Z,25.20
2019-05-21T06:26:33.945Z,24.60
2019-05-21T06:29:04.149Z,24.87
2019-05-21T06:31:34.066Z,25.77
2019-05-21T06:34:04.376Z,26.60
2019-05-21T06:36:34.282Z,25.87
2019-05-21T06:39:05.282Z,26.93
2019-05-21T06:41:35.393Z,27.10
2019-05-21T06:44:05.890Z,27.30
2019-05-21T06:46:36.197Z,25.70
2019-05-21T06:49:06.702Z,23.00
2019-05-21T06:51:36.616Z,21.77
2019-05-21T06:54:06.826Z,22.50
2019-05-21T06:56:36.738Z,21.97
2019-05-21T06:59:07.441Z,24.93
2019-05-21T07:01:37.647Z,23.53
2019-05-21T07:04:07.563Z,22.27
2019-05-21T07:06:37.668Z,23.27
2019-05-21T07:09:08.665Z,22.30
2019-05-21T07:11:38.699Z,22.27
2019-05-21T07:14:08.981Z,22.53
2019-05-21T07:16:38.896Z,23.47
2019-05-21T07:19:08.811Z,25.33
2019-05-21T07:21:38.920Z,22.37
2019-05-21T07:24:08.832Z,22.70
2019-05-21T07:26:38.745Z,22.63
2019-05-21T07:29:08.683Z,23.77
2019-05-21T07:31:39.420Z,23.27
2019-05-21T07:34:09.373Z,23.83
2019-05-21T07:36:39.288Z,22.93
2019-05-21T07:39:09.689Z,23.67
2019-05-21T07:41:39.717Z,24.00
2019-05-21T07:44:09.620Z,21.63
2019-05-21T07:46:40.135Z,21.10
2019-05-21T07:49:10.430Z,21.20
2019-05-21T07:51:40.776Z,22.03
2019-05-21T07:54:10.743Z,21.13
2019-05-21T07:56:40.951Z,24.60
2019-05-21T07:59:10.866Z,19.77
2019-05-21T08:01:40.783Z,18.97
2019-05-21T08:04:11.119Z,19.80
2019-05-21T08:06:41.254Z,17.70
2019-05-21T08:09:14.234Z,17.97
2019-05-21T08:11:42.888Z,19.03
2019-05-21T08:14:12.803Z,17.43
2019-05-21T08:16:42.908Z,18.37
2019-05-21T08:19:13.626Z,15.80
2019-05-21T08:21:43.724Z,15.57
2019-05-21T08:24:13.637Z,14.33
2019-05-21T08:26:43.748Z,16.10
2019-05-21T08:29:13.760Z,17.97
2019-05-21T08:31:43.673Z,15.00
2019-05-21T08:34:13.688Z,15.00
2019-05-21T08:36:44.776Z,14.53
2019-05-21T08:39:27.614Z,13.10
2019-05-21T08:41:46.587Z,12.40
2019-05-21T08:44:16.779Z,13.70
2019-05-21T08:46:46.601Z,11.50
2019-05-21T08:49:16.507Z,11.93
2019-05-21T08:51:46.423Z,11.20
2019-05-21T08:54:17.905Z,11.27
2019-05-21T08:56:47.819Z,10.43
2019-05-21T08:59:18.052Z,10.93
2019-05-21T09:01:47.955Z,12.33
2019-05-21T09:04:18.087Z,10.13
2019-05-21T09:06:48.063Z,9.53
2019-05-21T09:09:18.072Z,9.43
2019-05-21T09:11:48.622Z,9.97
2019-05-21T09:14:18.593Z,8.77
2019-05-21T09:16:48.502Z,9.73
2019-05-21T09:19:18.417Z,9.10
2019-05-21T09:21:48.434Z,12.73
2019-05-21T09:24:18.343Z,8.33
2019-05-21T09:26:48.354Z,7.93
2019-05-21T09:29:18.267Z,7.03
2019-05-21T09:31:48.283Z,11.03
2019-05-21T09:34:18.191Z,7.83
2019-05-21T09:36:48.110Z,8.67
2019-05-21T09:39:18.017Z,8.27
2019-05-21T09:41:48.128Z,9.77
2019-05-21T09:44:18.096Z,7.97
2019-05-21T09:46:48.151Z,10.67
2019-05-21T09:49:18.065Z,9.40
2019-05-21T09:51:48.174Z,8.90
2019-05-21T09:54:18.090Z,9.00
2019-05-21T09:56:48.003Z,10.33
2019-05-21T09:59:22.248Z,7.83
2019-05-21T10:02:08.768Z,8.50
2019-05-21T10:04:38.680Z,8.37
2019-05-21T10:07:08.697Z,6.60
2019-05-21T10:09:39.003Z,7.63
2019-05-21T10:12:09.012Z,7.90
2019-05-21T10:14:39.614Z,7.77
2019-05-21T10:17:09.532Z,6.90
2019-05-21T10:19:40.031Z,7.40
2019-05-21T10:22:10.388Z,7.87
2019-05-21T10:24:40.741Z,8.70
2019-05-21T10:27:10.852Z,7.20
2019-05-21T10:29:40.765Z,8.03
2019-05-21T10:32:10.776Z,6.80
2019-05-21T10:34:40.691Z,6.80
2019-05-21T10:37:10.800Z,7.37
2019-05-21T10:39:40.719Z,6.73
2019-05-21T10:42:10.827Z,6.33
2019-05-21T10:44:42.506Z,6.63
2019-05-21T10:47:16.201Z,5.90
2019-05-21T10:49:44.597Z,5.33
2019-05-21T10:52:14.804Z,6.93
2019-05-21T10:54:44.786Z,8.07
2019-05-21T10:57:14.786Z,4.93
2019-05-21T10:59:45.035Z,7.57
2019-05-21T11:02:25.493Z,6.40
2019-05-21T11:04:57.149Z,6.30
2019-05-21T11:07:27.767Z,7.77
2019-05-21T11:09:57.762Z,5.93
2019-05-21T11:12:27.774Z,5.87
2019-05-21T11:14:57.691Z,7.03
2019-05-21T11:17:27.708Z,6.30
2019-05-21T11:19:57.614Z,5.60
2019-05-21T11:22:27.626Z,6.70
2019-05-21T11:24:57.538Z,4.70
2019-05-21T11:27:27.844Z,5.50
2019-05-21T11:29:57.858Z,5.00
2019-05-21T11:32:27.869Z,6.87
2019-05-21T11:34:58.373Z,8.47
2019-05-21T11:37:28.286Z,5.37
2019-05-21T11:39:58.314Z,7.13
2019-05-21T11:42:28.602Z,6.00
2019-05-21T11:44:58.517Z,5.90
2019-05-21T11:47:28.439Z,5.27
2019-05-21T11:49:58.595Z,4.73
2019-05-21T11:52:28.394Z,4.90
2019-05-21T11:54:58.419Z,6.30
2019-05-21T11:57:28.574Z,4.63
2019-05-21T11:59:58.684Z,5.30
2019-05-21T12:02:28.893Z,6.50
2019-05-21T12:04:59.101Z,6.33
2019-05-21T12:07:29.015Z,4.90
2019-05-21T12:09:58.928Z,4.03
2019-05-21T12:12:28.847Z,9.13
2019-05-21T12:14:58.663Z,5.07
2019-05-21T12:17:28.671Z,4.30
2019-05-21T12:19:58.587Z,4.63
2019-05-21T12:22:28.793Z,5.17
2019-05-21T12:24:58.704Z,4.77
2019-05-21T12:27:28.617Z,5.67
2019-05-21T12:29:58.735Z,5.63
2019-05-21T12:32:28.642Z,7.23
2019-05-21T12:34:58.654Z,4.43
2019-05-21T12:37:28.570Z,4.47
2019-05-21T12:39:58.874Z,4.37
2019-05-21T12:42:28.786Z,4.43
2019-05-21T12:44:58.699Z,3.97
2019-05-21T12:47:28.927Z,4.43
2019-05-21T12:49:59.017Z,4.73
2019-05-21T12:52:28.977Z,5.73
2019-05-21T12:54:59.335Z,4.83
2019-05-21T12:57:29.158Z,3.87
2019-05-21T12:59:59.166Z,4.17
2019-05-21T13:02:29.281Z,3.60
2019-05-21T13:04:59.283Z,4.93
2019-05-21T13:07:29.889Z,3.80
2019-05-21T13:09:59.809Z,3.80
2019-05-21T13:12:29.813Z,4.27
2019-05-21T13:14:59.725Z,4.00
2019-05-21T13:17:29.736Z,4.40
2019-05-21T13:19:59.651Z,4.10
2019-05-21T13:22:29.680Z,4.27
2019-05-21T13:24:59.574Z,3.90
2019-05-21T13:27:29.878Z,5.30
2019-05-21T13:30:00.052Z,3.93
2019-05-21T13:32:30.055Z,4.13
2019-05-21T13:35:00.382Z,4.70
2019-05-21T13:37:31.530Z,4.43
2019-05-21T13:40:01.729Z,5.20
2019-05-21T13:42:31.818Z,3.70
2019-05-21T13:45:01.833Z,4.97
2019-05-21T13:47:31.947Z,4.90
2019-05-21T13:50:02.056Z,3.43
2019-05-21T13:52:32.261Z,4.80
2019-05-21T13:55:02.182Z,3.30
2019-05-21T13:57:32.382Z,5.83
2019-05-21T14:00:02.860Z,3.83
2019-05-21T14:02:33.192Z,4.63
2019-05-21T14:05:03.317Z,6.73
2019-05-21T14:07:33.416Z,3.63
2019-05-21T14:10:15.141Z,5.23
2019-05-21T14:12:36.384Z,5.83
2019-05-21T14:15:07.402Z,4.67
2019-05-21T14:17:37.587Z,3.67
2019-05-21T14:20:11.137Z,3.83
2019-05-21T14:22:41.214Z,4.03
2019-05-21T14:25:13.028Z,3.97
2019-05-21T14:27:44.701Z,3.60
2019-05-21T14:30:15.230Z,4.97
2019-05-21T14:32:46.110Z,4.73
2019-05-21T14:35:16.031Z,5.10
2019-05-21T14:37:46.233Z,4.23
2019-05-21T14:40:31.222Z,4.20
2019-05-21T14:43:00.008Z,3.77
2019-05-21T14:45:22.662Z,5.10
2019-05-21T14:47:52.573Z,3.50
2019-05-21T14:50:22.757Z,4.67
2019-05-21T14:52:52.778Z,4.17
2019-05-21T14:55:22.801Z,3.33
2019-05-21T14:57:52.717Z,3.20
2019-05-21T15:00:25.381Z,3.27
2019-05-21T15:02:55.294Z,3.40
2019-05-21T15:05:25.307Z,3.67
2019-05-21T15:07:55.219Z,4.37
2019-05-21T15:10:25.137Z,4.23
2019-05-21T15:12:55.048Z,3.90
2019-05-21T15:15:26.045Z,7.57
2019-05-21T15:17:56.052Z,4.13
2019-05-21T15:20:28.505Z,4.73
2019-05-21T15:22:59.124Z,4.20
2019-05-21T15:25:29.074Z,4.47
2019-05-21T15:27:59.736Z,4.07
2019-05-21T15:30:29.654Z,5.17
2019-05-21T15:32:59.862Z,4.13
2019-05-21T15:35:29.874Z,6.10
2019-05-21T15:37:59.786Z,3.93
2019-05-21T15:40:30.188Z,3.60
2019-05-21T15:43:00.101Z,4.13
2019-05-21T15:45:30.015Z,4.70
2019-05-21T15:48:00.519Z,4.80
2019-05-21T15:50:30.731Z,3.97
2019-05-21T15:53:00.871Z,3.77
2019-05-21T15:55:30.750Z,4.27
2019-05-21T15:58:00.666Z,5.20
2019-05-21T16:00:31.522Z,3.60
2019-05-21T16:03:01.902Z,3.97
2019-05-21T16:05:31.882Z,3.93
2019-05-21T16:08:01.793Z,4.57
2019-05-21T16:10:31.706Z,5.53
2019-05-21T16:13:01.618Z,3.93
2019-05-21T16:15:31.534Z,4.00
2019-05-21T16:18:01.445Z,4.57
2019-05-21T16:20:31.655Z,5.50
2019-05-21T16:23:02.060Z,3.83
2019-05-21T16:25:31.972Z,4.47
2019-05-21T16:28:01.886Z,4.67
2019-05-21T16:30:31.803Z,4.13
2019-05-21T16:33:02.261Z,4.10
2019-05-21T16:35:33.985Z,3.90
2019-05-21T16:38:03.898Z,4.27
2019-05-21T16:40:34.105Z,5.27
2019-05-21T16:43:04.117Z,3.47
2019-05-21T16:45:34.326Z,4.40
2019-05-21T16:48:04.731Z,4.50
2019-05-21T16:50:34.742Z,4.53
2019-05-21T16:53:04.662Z,4.10
2019-05-21T16:55:36.239Z,4.50
2019-05-21T16:58:06.839Z,3.80
2019-05-21T17:00:36.860Z,4.20
2019-05-21T17:03:07.067Z,4.63
2019-05-21T17:05:37.083Z,3.63
2019-05-21T17:08:06.989Z,3.70
2019-05-21T17:10:37.206Z,5.00
2019-05-21T17:13:07.298Z,3.93
2019-05-21T17:15:37.668Z,4.03
2019-05-21T17:18:07.772Z,4.60
2019-05-21T17:20:37.831Z,3.83
2019-05-21T17:23:07.844Z,4.77
2019-05-21T17:25:37.756Z,4.50
2019-05-21T17:28:07.669Z,4.30
2019-05-21T17:30:37.779Z,4.47
2019-05-21T17:33:08.154Z,3.70
2019-05-21T17:35:38.098Z,9.10
2019-05-21T17:38:08.012Z,4.63
2019-05-21T17:40:37.925Z,3.93
2019-05-21T17:43:07.724Z,3.87
2019-05-21T17:45:37.848Z,3.87
2019-05-21T17:48:07.683Z,3.57
2019-05-21T17:50:37.678Z,3.93
2019-05-21T17:53:07.695Z,3.90
2019-05-21T17:55:37.897Z,4.33
2019-05-21T17:58:07.695Z,4.47
2019-05-21T18:00:54.338Z,4.03
2019-05-21T18:03:25.743Z,4.10
2019-05-21T18:05:56.631Z,5.63
2019-05-21T18:08:26.558Z,4.20
2019-05-21T18:10:57.037Z,4.40
2019-05-21T18:13:27.737Z,4.70
2019-05-21T18:16:00.141Z,5.20
2019-05-21T18:18:30.735Z,4.80
2019-05-21T18:21:02.599Z,4.53
2019-05-21T18:23:32.562Z,4.80
2019-05-21T18:26:03.211Z,5.00
2019-05-21T18:28:33.669Z,4.57
2019-05-21T18:31:05.789Z,5.07
2019-05-21T18:33:37.060Z,4.60
2019-05-21T18:36:08.039Z,4.90
2019-05-21T18:38:38.824Z,7.13
2019-05-21T18:41:10.003Z,4.23
2019-05-21T18:43:39.968Z,4.37
2019-05-21T18:46:10.177Z,5.93
2019-05-21T18:48:40.777Z,4.83
2019-05-21T18:51:10.818Z,4.53
2019-05-21T18:53:40.899Z,4.63
2019-05-21T18:56:10.813Z,4.77
2019-05-21T18:58:41.225Z,4.50
2019-05-21T19:01:11.428Z,5.63
2019-05-21T19:03:41.547Z,5.03
2019-05-21T19:06:11.646Z,5.77
2019-05-21T19:08:41.560Z,4.53
2019-05-21T19:11:11.768Z,4.70
2019-05-21T19:13:41.876Z,6.13
2019-05-21T19:16:11.791Z,4.60
2019-05-21T19:18:41.720Z,6.00
2019-05-21T19:21:12.206Z,5.90
2019-05-21T19:23:42.416Z,5.60
2019-05-21T19:26:12.328Z,5.13
2019-05-21T19:28:42.245Z,4.77
2019-05-21T19:31:12.255Z,5.23
2019-05-21T19:33:42.593Z,4.90
2019-05-21T19:36:12.573Z,6.07
2019-05-21T19:38:42.484Z,5.90
2019-05-21T19:41:13.051Z,5.17
2019-05-21T19:43:43.591Z,5.77
2019-05-21T19:46:13.503Z,5.80
2019-05-21T19:48:43.417Z,5.93
2019-05-21T19:51:13.759Z,5.50
2019-05-21T19:53:43.843Z,5.43
2019-05-21T19:56:14.139Z,5.97
2019-05-21T19:58:44.052Z,6.13
2019-05-21T20:01:14.163Z,7.53
2019-05-21T20:03:44.725Z,7.10
2019-05-21T20:06:16.749Z,5.80
2019-05-21T20:08:46.965Z,7.53
2019-05-21T20:11:18.240Z,6.73
2019-05-21T20:13:48.155Z,8.03
2019-05-21T20:16:19.155Z,6.23
2019-05-21T20:18:49.161Z,7.90
2019-05-21T20:21:20.273Z,5.87
2019-05-21T20:23:51.642Z,6.50
2019-05-21T20:26:23.717Z,7.40
2019-05-21T20:28:54.660Z,7.53
2019-05-21T20:31:25.119Z,11.37
2019-05-21T20:33:55.521Z,7.67
2019-05-21T20:36:25.828Z,9.47
2019-05-21T20:38:56.331Z,10.17
2019-05-21T20:41:26.834Z,9.03
2019-05-21T20:43:59.300Z,10.03
2019-05-21T20:46:29.513Z,9.07
2019-05-21T20:49:00.910Z,8.03
2019-05-21T20:51:31.698Z,7.87
2019-05-21T20:54:02.700Z,6.90
2019-05-21T20:56:33.296Z,8.83
2019-05-21T20:59:03.699Z,7.80
2019-05-21T21:01:34.698Z,7.97
2019-05-21T21:04:05.248Z,7.87
2019-05-21T21:06:36.448Z,9.03
2019-05-21T21:09:10.556Z,9.70
2019-05-21T21:11:41.946Z,7.83
2019-05-21T21:14:18.038Z,8.20
2019-05-21T21:16:46.659Z,7.53
2019-05-21T21:19:16.769Z,8.23
2019-05-21T21:21:46.715Z,7.70
2019-05-21T21:24:17.383Z,8.00
2019-05-21T21:26:47.590Z,7.60
2019-05-21T21:29:17.502Z,7.77
2019-05-21T21:31:47.958Z,8.97
2019-05-21T21:34:18.511Z,8.27
2019-05-21T21:36:53.187Z,9.10
2019-05-21T21:39:21.778Z,8.20
2019-05-21T21:41:52.310Z,8.37
2019-05-21T21:44:33.472Z,8.63
2019-05-21T21:46:55.254Z,8.17
2019-05-21T21:49:25.854Z,8.33
2019-05-21T21:51:56.457Z,10.20
2019-05-21T21:54:26.761Z,8.43
2019-05-21T21:56:56.873Z,9.23
2019-05-21T21:59:26.786Z,9.00
2019-05-21T22:02:03.751Z,9.87
2019-05-21T22:04:36.273Z,8.47
2019-05-21T22:07:07.339Z,8.30
2019-05-21T22:09:39.120Z,7.17
2019-05-21T22:12:10.607Z,9.90
2019-05-21T22:14:50.420Z,8.33
2019-05-21T22:17:15.546Z,7.73
2019-05-21T22:19:45.851Z,9.53
2019-05-21T22:22:16.157Z,9.13
2019-05-21T22:24:46.171Z,7.97
2019-05-21T22:27:16.279Z,8.50
2019-05-21T22:29:46.303Z,8.17
2019-05-21T22:32:16.896Z,9.00
2019-05-21T22:34:47.398Z,8.93
2019-05-21T22:37:18.981Z,9.07
2019-05-21T22:39:49.487Z,8.33
2019-05-21T22:42:19.593Z,8.70
2019-05-21T22:45:06.826Z,8.67
2019-05-21T22:47:23.453Z,9.00
2019-05-21T22:49:54.347Z,9.37
2019-05-21T22:52:24.655Z,8.83
2019-05-21T22:54:54.958Z,8.60
2019-05-21T22:57:26.280Z,8.90
2019-05-21T22:59:56.556Z,9.20
2019-05-21T23:02:27.923Z,8.87
2019-05-21T23:04:58.152Z,9.73
2019-05-21T23:07:28.133Z,9.07
2019-05-21T23:09:59.541Z,8.87
2019-05-21T23:12:31.140Z,9.33
2019-05-21T23:15:01.249Z,9.40
2019-05-21T23:17:32.635Z,8.67
2019-05-21T23:20:05.794Z,9.27
2019-05-21T23:22:36.196Z,8.83
2019-05-21T23:25:08.077Z,8.93
2019-05-21T23:27:39.466Z,9.23
2019-05-21T23:30:12.719Z,8.97
2019-05-21T23:32:44.011Z,8.93
2019-05-21T23:35:14.517Z,9.30
2019-05-21T23:37:47.534Z,9.50
2019-05-21T23:40:17.831Z,9.17
2019-05-21T23:42:47.990Z,9.47
2019-05-21T23:45:18.788Z,9.57
2019-05-21T23:47:49.598Z,10.37
2019-05-21T23:50:21.072Z,10.20
2019-05-21T23:52:52.771Z,9.50
2019-05-21T23:55:23.257Z,9.17
2019-05-21T23:57:54.056Z,9.60
